createdAt,value
2018-04-11T00:01:06.438Z,4.1
2018-04-11T00:04:06.490Z,4.1
2018-04-11T00:07:06.448Z,4.1
2018-04-11T00:10:06.548Z,4.1
2018-04-11T00:13:06.436Z,4.1
2018-04-11T00:16:06.455Z,4.1
2018-04-11T00:19:06.467Z,4.1
2018-04-11T00:22:06.476Z,4.1
2018-04-11T00:25:06.804Z,4.1
2018-04-11T00:28:06.553Z,4.1
2018-04-11T00:31:06.962Z,4.1
2018-04-11T00:34:06.453Z,4.1
2018-04-11T00:37:06.455Z,4.1
2018-04-11T00:40:06.604Z,4.1
2018-04-11T00:43:06.430Z,4.1
2018-04-11T00:46:06.522Z,4.1
2018-04-11T00:49:06.656Z,4.1
2018-04-11T00:52:06.471Z,4.1
2018-04-11T00:55:06.471Z,4.1
2018-04-11T00:58:06.431Z,4.1
2018-04-11T01:01:06.442Z,4
2018-04-11T01:04:06.447Z,4
2018-04-11T01:07:06.445Z,4
2018-04-11T01:10:06.455Z,4
2018-04-11T01:13:06.657Z,4
2018-04-11T01:16:06.633Z,4
2018-04-11T01:19:06.436Z,4
2018-04-11T01:22:06.829Z,4
2018-04-11T01:25:06.734Z,4
2018-04-11T01:28:06.680Z,4
2018-04-11T01:31:06.415Z,4
2018-04-11T01:34:06.457Z,4
2018-04-11T01:37:06.415Z,4
2018-04-11T01:40:06.411Z,4
2018-04-11T01:43:06.711Z,4
2018-04-11T01:46:06.422Z,4
2018-04-11T01:49:06.716Z,4
2018-04-11T01:52:06.409Z,4
2018-04-11T01:55:06.386Z,4
2018-04-11T01:58:06.421Z,4
2018-04-11T02:01:06.447Z,4
2018-04-11T02:04:06.389Z,4
2018-04-11T02:07:06.627Z,4
2018-04-11T02:10:06.474Z,4
2018-04-11T02:13:06.686Z,4
2018-04-11T02:16:06.415Z,4
2018-04-11T02:19:06.668Z,4
2018-04-11T02:22:06.628Z,4
2018-04-11T02:25:06.360Z,4
2018-04-11T02:28:06.495Z,4
2018-04-11T02:31:06.410Z,4
2018-04-11T02:34:06.385Z,4
2018-04-11T02:37:06.464Z,4
2018-04-11T02:40:06.437Z,4
2018-04-11T02:43:06.403Z,4
2018-04-11T02:46:06.417Z,4
2018-04-11T02:49:06.771Z,4
2018-04-11T02:52:06.444Z,4
2018-04-11T02:55:06.470Z,4
2018-04-11T02:58:06.383Z,4
2018-04-11T03:01:06.448Z,3.9
2018-04-11T03:04:06.791Z,3.9
2018-04-11T03:07:06.634Z,3.9
2018-04-11T03:10:06.920Z,3.9
2018-04-11T03:13:06.359Z,3.9
2018-04-11T03:16:06.349Z,3.9
2018-04-11T03:19:06.342Z,3.9
2018-04-11T03:22:06.732Z,3.9
2018-04-11T03:25:06.401Z,3.9
2018-04-11T03:28:06.846Z,3.9
2018-04-11T03:31:06.413Z,3.9
2018-04-11T03:34:06.391Z,3.9
2018-04-11T03:37:06.402Z,3.9
2018-04-11T03:40:06.350Z,3.9
2018-04-11T03:43:06.377Z,3.9
2018-04-11T03:46:06.379Z,3.9
2018-04-11T03:49:06.405Z,3.9
2018-04-11T03:52:06.861Z,3.9
2018-04-11T03:55:06.436Z,3.9
2018-04-11T03:58:06.399Z,3.9
2018-04-11T04:01:06.425Z,3.9
2018-04-11T04:04:06.366Z,3.9
2018-04-11T04:07:06.394Z,3.9
2018-04-11T04:10:06.443Z,3.9
2018-04-11T04:13:06.405Z,3.9
2018-04-11T04:16:06.828Z,3.9
2018-04-11T04:19:06.622Z,3.9
2018-04-11T04:22:06.703Z,3.9
2018-04-11T04:25:06.376Z,3.9
2018-04-11T04:28:06.412Z,3.9
2018-04-11T04:31:06.360Z,3.9
2018-04-11T04:34:06.557Z,3.9
2018-04-11T04:37:07.096Z,3.9
2018-04-11T04:40:06.746Z,3.9
2018-04-11T04:43:06.357Z,3.9
2018-04-11T04:46:06.526Z,3.9
2018-04-11T04:49:06.782Z,3.9
2018-04-11T04:52:06.994Z,3.9
2018-04-11T04:55:06.368Z,3.9
2018-04-11T04:58:06.586Z,3.9
2018-04-11T05:01:06.407Z,3.8
2018-04-11T05:04:06.318Z,3.8
2018-04-11T05:07:06.372Z,3.8
2018-04-11T05:10:06.337Z,3.8
2018-04-11T05:13:06.436Z,3.8
2018-04-11T05:16:06.404Z,3.8
2018-04-11T05:19:06.338Z,3.8
2018-04-11T05:22:06.351Z,3.8
2018-04-11T05:25:06.791Z,3.8
2018-04-11T05:28:06.357Z,3.8
2018-04-11T05:31:06.355Z,3.8
2018-04-11T05:34:06.766Z,3.8
2018-04-11T05:37:06.298Z,3.8
2018-04-11T05:40:06.328Z,3.8
2018-04-11T05:43:06.327Z,3.8
2018-04-11T05:46:06.325Z,3.8
2018-04-11T05:49:06.359Z,3.8
2018-04-11T05:52:06.359Z,3.8
2018-04-11T05:55:06.355Z,3.8
2018-04-11T05:58:06.441Z,3.8
2018-04-11T06:01:06.363Z,3.8
2018-04-11T06:04:06.329Z,3.8
2018-04-11T06:07:06.328Z,3.8
2018-04-11T06:10:06.307Z,3.8
2018-04-11T06:13:06.359Z,3.8
2018-04-11T06:16:06.449Z,3.8
2018-04-11T06:19:06.357Z,3.8
2018-04-11T06:22:06.322Z,3.8
2018-04-11T06:25:06.327Z,3.8
2018-04-11T06:28:06.654Z,3.8
2018-04-11T06:31:06.359Z,3.8
2018-04-11T06:34:06.367Z,3.8
2018-04-11T06:37:06.344Z,3.8
2018-04-11T06:40:06.307Z,3.8
2018-04-11T06:43:06.514Z,3.8
2018-04-11T06:46:06.450Z,3.8
2018-04-11T06:49:06.342Z,3.8
2018-04-11T06:52:06.280Z,3.8
2018-04-11T06:55:06.343Z,3.8
2018-04-11T06:58:06.300Z,3.8
2018-04-11T07:01:06.365Z,3.8
2018-04-11T07:04:06.332Z,3.8
2018-04-11T07:07:06.391Z,3.8
2018-04-11T07:10:06.323Z,3.8
2018-04-11T07:13:06.333Z,3.8
2018-04-11T07:16:06.287Z,3.8
2018-04-11T07:19:06.475Z,3.8
2018-04-11T07:22:06.322Z,3.8
2018-04-11T07:25:06.526Z,3.8
2018-04-11T07:28:06.295Z,3.8
2018-04-11T07:31:06.316Z,3.8
2018-04-11T07:34:06.324Z,3.8
2018-04-11T07:37:06.278Z,3.8
2018-04-11T07:40:07.358Z,3.8
2018-04-11T07:43:06.295Z,3.8
2018-04-11T07:46:07.500Z,3.8
2018-04-11T07:49:06.338Z,3.8
2018-04-11T07:52:06.310Z,3.8
2018-04-11T07:55:06.276Z,3.8
2018-04-11T07:58:06.289Z,3.8
2018-04-11T08:01:06.280Z,3.9
2018-04-11T08:04:06.460Z,3.9
2018-04-11T08:07:06.298Z,3.9
2018-04-11T08:10:07.064Z,3.9
2018-04-11T08:13:06.351Z,3.9
2018-04-11T08:16:06.255Z,3.9
2018-04-11T08:19:06.304Z,3.9
2018-04-11T08:22:06.314Z,3.9
2018-04-11T08:25:06.300Z,3.9
2018-04-11T08:28:06.308Z,3.9
2018-04-11T08:31:06.305Z,3.9
2018-04-11T08:34:06.339Z,3.9
2018-04-11T08:37:06.341Z,3.9
2018-04-11T08:40:06.320Z,3.9
2018-04-11T08:43:06.251Z,3.9
2018-04-11T08:46:06.255Z,3.9
2018-04-11T08:49:06.276Z,3.9
2018-04-11T08:52:06.325Z,3.9
2018-04-11T08:55:06.269Z,3.9
2018-04-11T08:58:06.284Z,3.9
2018-04-11T09:01:06.258Z,3.8
2018-04-11T09:04:06.294Z,3.8
2018-04-11T09:07:06.291Z,3.8
2018-04-11T09:10:06.285Z,3.8
2018-04-11T09:13:06.300Z,3.8
2018-04-11T09:16:06.245Z,3.8
2018-04-11T09:19:06.315Z,3.8
2018-04-11T09:22:06.307Z,3.8
2018-04-11T09:25:06.425Z,3.8
2018-04-11T09:28:06.258Z,3.8
2018-04-11T09:31:06.230Z,3.8
2018-04-11T09:34:06.299Z,3.8
2018-04-11T09:37:06.251Z,3.8
2018-04-11T09:40:06.384Z,3.8
2018-04-11T09:43:06.295Z,3.8
2018-04-11T09:46:06.390Z,3.8
2018-04-11T09:49:06.337Z,3.8
2018-04-11T09:52:06.274Z,3.8
2018-04-11T09:55:06.243Z,3.8
2018-04-11T09:58:06.431Z,3.8
2018-04-11T10:01:06.254Z,3.7
2018-04-11T10:04:06.227Z,3.7
2018-04-11T10:07:06.259Z,3.7
2018-04-11T10:10:06.260Z,3.7
2018-04-11T10:13:06.387Z,3.7
2018-04-11T10:16:06.287Z,3.7
2018-04-11T10:19:06.997Z,3.7
2018-04-11T10:22:06.298Z,3.7
2018-04-11T10:25:06.290Z,3.7
2018-04-11T10:28:06.531Z,3.7
2018-04-11T10:31:06.304Z,3.7
2018-04-11T10:34:06.464Z,3.7
2018-04-11T10:37:06.301Z,3.7
2018-04-11T10:40:06.472Z,3.7
2018-04-11T10:43:06.374Z,3.7
2018-04-11T10:46:06.238Z,3.7
2018-04-11T10:49:06.241Z,3.7
2018-04-11T10:52:06.250Z,3.7
2018-04-11T10:55:06.270Z,3.7
2018-04-11T10:58:06.255Z,3.7
2018-04-11T11:01:06.320Z,3.7
2018-04-11T11:04:06.235Z,3.7
2018-04-11T11:07:06.250Z,3.7
2018-04-11T11:10:06.239Z,3.7
2018-04-11T11:13:06.250Z,3.7
2018-04-11T11:16:06.224Z,3.7
2018-04-11T11:19:06.256Z,3.7
2018-04-11T11:22:06.245Z,3.7
2018-04-11T11:25:06.241Z,3.7
2018-04-11T11:28:06.284Z,3.7
2018-04-11T11:31:06.210Z,3.7
2018-04-11T11:34:06.246Z,3.7
2018-04-11T11:37:06.221Z,3.7
2018-04-11T11:40:06.219Z,3.7
2018-04-11T11:43:06.239Z,3.7
2018-04-11T11:46:06.256Z,3.7
2018-04-11T11:49:06.392Z,3.7
2018-04-11T11:52:06.907Z,3.7
2018-04-11T11:55:06.273Z,3.7
2018-04-11T11:58:06.217Z,3.7
2018-04-11T12:01:06.255Z,3.7
2018-04-11T12:04:06.211Z,3.7
2018-04-11T12:07:06.230Z,3.7
2018-04-11T12:10:06.224Z,3.7
2018-04-11T12:13:06.450Z,3.7
2018-04-11T12:16:06.252Z,3.7
2018-04-11T12:19:06.354Z,3.7
2018-04-11T12:22:06.259Z,3.7
2018-04-11T12:25:06.970Z,3.7
2018-04-11T12:28:06.335Z,3.7
2018-04-11T12:31:06.222Z,3.7
2018-04-11T12:34:06.367Z,3.7
2018-04-11T12:37:06.548Z,3.7
2018-04-11T12:40:06.203Z,3.7
2018-04-11T12:43:06.231Z,3.7
2018-04-11T12:46:06.203Z,3.7
2018-04-11T12:49:06.265Z,3.7
2018-04-11T12:52:06.268Z,3.7
2018-04-11T12:55:06.205Z,3.7
2018-04-11T12:58:06.161Z,3.7
2018-04-11T13:01:06.533Z,3.7
2018-04-11T13:04:06.454Z,3.7
2018-04-11T13:07:06.199Z,3.7
2018-04-11T13:10:06.206Z,3.7
2018-04-11T13:13:06.435Z,3.7
2018-04-11T13:16:06.588Z,3.7
2018-04-11T14:00:21.798Z,7.9
2018-04-11T14:03:21.799Z,7.9
2018-04-11T14:06:21.744Z,7.9
2018-04-11T15:01:39.202Z,6.9
2018-04-11T15:04:39.201Z,6.9
2018-04-11T15:07:39.124Z,6.9
2018-04-11T15:10:39.108Z,6.9
2018-04-11T15:13:39.112Z,6.9
2018-04-11T15:16:39.074Z,6.9
2018-04-11T15:19:39.186Z,6.9
2018-04-11T15:22:39.065Z,6.9
2018-04-11T15:25:39.098Z,6.9
2018-04-11T15:28:39.071Z,6.9
2018-04-11T15:31:39.266Z,6.9
2018-04-11T15:34:39.067Z,6.9
2018-04-11T15:37:39.100Z,6.9
2018-04-11T15:40:39.081Z,6.9
2018-04-11T15:43:39.184Z,6.9
2018-04-11T15:46:39.086Z,6.9
2018-04-11T16:01:32.349Z,4.7
2018-04-11T16:04:32.619Z,4.7
2018-04-11T16:07:32.218Z,4.7
2018-04-11T17:01:16.338Z,6.5
2018-04-11T17:04:16.264Z,6.5
2018-04-11T17:07:16.213Z,6.5
2018-04-11T17:10:16.339Z,6.5
2018-04-11T17:13:16.327Z,6.5
2018-04-11T17:16:16.347Z,6.5
2018-04-11T17:19:16.199Z,6.5
2018-04-11T17:22:16.213Z,6.5
2018-04-11T17:25:16.444Z,6.5
2018-04-11T17:28:16.445Z,6.5
2018-04-11T17:31:16.313Z,6.5
2018-04-11T17:34:16.377Z,6.5
2018-04-11T17:37:16.265Z,6.5
2018-04-11T17:40:16.165Z,6.5
2018-04-11T17:43:16.248Z,6.5
2018-04-11T17:46:16.354Z,6.5
2018-04-11T17:49:16.219Z,6.5
2018-04-11T17:52:16.425Z,6.5
2018-04-11T17:55:16.832Z,6.5
2018-04-11T17:58:16.187Z,6.5
2018-04-11T18:01:16.342Z,6.2
2018-04-11T18:04:16.362Z,6.2
2018-04-11T18:07:16.271Z,6.2
2018-04-11T18:10:16.389Z,6.2
2018-04-11T18:13:16.457Z,6.2
2018-04-11T18:16:16.329Z,6.2
2018-04-11T18:19:16.806Z,6.2
2018-04-11T18:22:16.948Z,6.2
2018-04-11T18:25:16.363Z,6.2
2018-04-11T18:28:16.219Z,6.2
2018-04-11T18:31:16.233Z,6.2
2018-04-11T18:34:16.229Z,6.2
2018-04-11T18:37:16.259Z,6.2
2018-04-11T18:40:16.377Z,6.2
2018-04-11T18:43:16.219Z,6.2
2018-04-11T18:46:16.706Z,6.2
2018-04-11T18:49:16.839Z,6.2
2018-04-11T18:52:16.321Z,6.2
2018-04-11T18:55:16.589Z,6.2
2018-04-11T18:58:16.316Z,6.2
2018-04-11T19:01:16.272Z,5.4
2018-04-11T19:04:16.252Z,5.4
2018-04-11T19:07:16.659Z,5.4
2018-04-11T19:10:16.386Z,5.4
2018-04-11T19:13:18.235Z,5.4
2018-04-11T19:16:16.344Z,5.4
2018-04-11T19:19:17.032Z,5.4
2018-04-11T19:22:16.247Z,5.4
2018-04-11T19:25:16.759Z,5.4
2018-04-11T19:28:16.903Z,5.4
2018-04-11T19:31:16.796Z,5.4
2018-04-11T19:34:16.311Z,5.4
2018-04-11T19:37:16.217Z,5.4
2018-04-11T19:40:16.239Z,5.4
2018-04-11T19:43:16.254Z,5.4
2018-04-11T19:46:16.158Z,5.4
2018-04-11T19:49:16.301Z,5.4
2018-04-11T19:52:16.558Z,5.4
2018-04-11T19:55:16.272Z,5.4
2018-04-11T19:58:16.415Z,5.4
2018-04-11T20:01:16.127Z,4.8
2018-04-11T20:04:16.225Z,4.8
2018-04-11T20:07:16.359Z,4.8
2018-04-11T20:10:16.346Z,4.8
2018-04-11T20:13:16.241Z,4.8
2018-04-11T20:16:16.297Z,4.8
2018-04-11T20:19:16.271Z,4.8
2018-04-11T20:22:16.336Z,4.8
2018-04-11T20:25:16.361Z,4.8
2018-04-11T20:28:16.117Z,4.8
2018-04-11T20:31:16.382Z,4.8
2018-04-11T20:34:16.123Z,4.8
2018-04-11T20:37:16.161Z,4.8
2018-04-11T20:40:16.278Z,4.8
2018-04-11T20:43:16.376Z,4.8
2018-04-11T20:46:16.257Z,4.8
2018-04-11T20:49:16.393Z,4.8
2018-04-11T20:52:16.235Z,4.8
2018-04-11T20:55:17.165Z,4.8
2018-04-11T20:58:16.171Z,4.8
2018-04-11T21:01:16.311Z,4.5
2018-04-11T21:04:16.324Z,4.5
2018-04-11T21:07:16.115Z,4.5
2018-04-11T21:10:16.137Z,4.5
2018-04-11T21:13:16.197Z,4.5
2018-04-11T21:16:16.272Z,4.5
2018-04-11T21:19:16.361Z,4.5
2018-04-11T21:22:16.352Z,4.5
2018-04-11T21:25:16.244Z,4.5
2018-04-11T21:28:16.377Z,4.5
2018-04-11T21:31:16.121Z,4.5
2018-04-11T21:34:16.255Z,4.5
2018-04-11T21:37:16.322Z,4.5
2018-04-11T21:40:16.231Z,4.5
2018-04-11T21:43:16.251Z,4.5
2018-04-11T21:46:16.150Z,4.5
2018-04-11T21:49:16.376Z,4.5
2018-04-11T21:52:16.146Z,4.5
2018-04-11T21:55:16.287Z,4.5
2018-04-11T21:58:16.285Z,4.5
2018-04-11T22:01:16.226Z,4.2
2018-04-11T22:04:16.362Z,4.2
2018-04-11T22:07:16.415Z,4.2
2018-04-11T22:10:16.176Z,4.2
2018-04-11T22:13:16.218Z,4.2
2018-04-11T22:16:16.087Z,4.2
2018-04-11T22:19:16.214Z,4.2
2018-04-11T22:22:16.606Z,4.2
2018-04-11T22:25:16.242Z,4.2
2018-04-11T22:28:16.206Z,4.2
2018-04-11T22:31:16.221Z,4.2
2018-04-11T22:34:16.251Z,4.2
2018-04-11T22:37:16.287Z,4.2
2018-04-11T22:40:16.167Z,4.2
2018-04-11T22:43:16.134Z,4.2
2018-04-11T22:46:16.136Z,4.2
2018-04-11T22:49:16.306Z,4.2
2018-04-11T22:52:16.291Z,4.2
2018-04-11T22:55:16.297Z,4.2
2018-04-11T22:58:16.095Z,4.2
2018-04-11T23:01:16.161Z,3.8
2018-04-11T23:04:16.350Z,3.8
2018-04-11T23:07:16.190Z,3.8
2018-04-11T23:10:16.153Z,3.8
2018-04-11T23:13:16.256Z,3.8
2018-04-11T23:16:16.239Z,3.8
2018-04-11T23:19:16.231Z,3.8
2018-04-11T23:22:16.207Z,3.8
2018-04-11T23:25:16.073Z,3.8
2018-04-11T23:28:16.133Z,3.8
2018-04-11T23:31:16.291Z,3.8
2018-04-11T23:34:16.274Z,3.8
2018-04-11T23:37:16.225Z,3.8
2018-04-11T23:40:16.141Z,3.8
2018-04-11T23:43:16.285Z,3.8
2018-04-11T23:46:16.267Z,3.8
2018-04-11T23:49:16.089Z,3.8
2018-04-11T23:52:16.227Z,3.8
2018-04-11T23:55:16.117Z,3.8
2018-04-11T23:58:16.233Z,3.8
